createdAt,value
2019-05-22T00:01:58.098Z,6.13
2019-05-22T00:04:34.551Z,6.60
2019-05-22T00:07:06.143Z,6.30
2019-05-22T00:09:39.969Z,6.90
2019-05-22T00:12:17.515Z,6.53
2019-05-22T00:14:49.237Z,6.20
2019-05-22T00:17:22.342Z,7.33
2019-05-22T00:19:51.594Z,6.87
2019-05-22T00:22:26.414Z,6.70
2019-05-22T00:24:58.638Z,7.50
2019-05-22T00:27:30.671Z,7.30
2019-05-22T00:30:02.324Z,7.47
2019-05-22T00:32:33.297Z,8.00
2019-05-22T00:35:08.753Z,7.10
2019-05-22T00:37:38.457Z,7.57
2019-05-22T00:40:12.139Z,7.33
2019-05-22T00:42:45.135Z,7.60
2019-05-22T00:45:15.332Z,7.43
2019-05-22T00:47:44.580Z,6.97
2019-05-22T00:50:20.852Z,7.20
2019-05-22T00:53:02.865Z,7.17
2019-05-22T00:55:48.245Z,7.40
2019-05-22T00:58:20.163Z,7.23
2019-05-22T01:00:52.164Z,7.23
2019-05-22T01:03:24.571Z,7.20
2019-05-22T01:05:55.626Z,7.53
2019-05-22T01:08:28.184Z,6.90
2019-05-22T01:11:00.261Z,7.37
2019-05-22T01:13:35.250Z,6.90
2019-05-22T01:16:07.345Z,7.73
2019-05-22T01:18:38.773Z,7.73
2019-05-22T01:21:10.229Z,7.40
2019-05-22T01:23:41.931Z,6.90
2019-05-22T01:26:15.857Z,7.07
2019-05-22T01:28:46.464Z,6.57
2019-05-22T01:31:24.515Z,6.50
2019-05-22T01:34:00.242Z,6.10
2019-05-22T01:36:51.349Z,7.27
2019-05-22T01:39:44.831Z,7.37
2019-05-22T01:42:15.800Z,6.97
2019-05-22T01:44:59.753Z,5.90
2019-05-22T01:47:35.769Z,5.90
2019-05-22T01:50:07.087Z,5.47
2019-05-22T01:52:38.140Z,5.20
2019-05-22T01:55:09.179Z,5.03
2019-05-22T01:57:38.794Z,4.73
2019-05-22T02:00:09.442Z,5.50
2019-05-22T02:02:38.584Z,4.63
2019-05-22T02:05:10.023Z,4.73
2019-05-22T02:07:41.178Z,4.90
2019-05-22T02:10:17.014Z,5.00
2019-05-22T02:12:54.518Z,5.00
2019-05-22T02:15:25.652Z,5.47
2019-05-22T02:17:59.756Z,5.20
2019-05-22T02:20:29.531Z,5.57
2019-05-22T02:22:59.906Z,5.07
2019-05-22T02:25:32.383Z,5.60
2019-05-22T02:28:01.675Z,6.50
2019-05-22T02:30:33.874Z,5.50
2019-05-22T02:33:04.575Z,5.90
2019-05-22T02:35:34.663Z,5.60
2019-05-22T02:38:04.124Z,6.20
2019-05-22T02:40:37.492Z,6.07
2019-05-22T02:43:09.141Z,6.83
2019-05-22T02:45:39.316Z,6.80
2019-05-22T02:48:09.478Z,6.43
2019-05-22T02:50:41.922Z,6.27
2019-05-22T02:53:13.919Z,5.60
2019-05-22T02:55:43.202Z,5.83
2019-05-22T02:58:13.219Z,5.90
2019-05-22T03:00:57.245Z,5.37
2019-05-22T03:03:27.429Z,5.27
2019-05-22T03:05:57.914Z,4.43
2019-05-22T03:08:35.015Z,4.50
2019-05-22T03:11:04.259Z,5.23
2019-05-22T03:13:59.812Z,5.23
2019-05-22T03:16:36.096Z,4.57
2019-05-22T03:19:08.804Z,4.93
2019-05-22T03:21:37.840Z,5.00
2019-05-22T03:24:08.154Z,5.30
2019-05-22T03:26:48.770Z,4.77
2019-05-22T03:29:19.889Z,4.63
2019-05-22T03:31:50.266Z,5.00
2019-05-22T03:34:19.413Z,5.00
2019-05-22T03:36:48.879Z,4.60
2019-05-22T03:39:18.048Z,5.40
2019-05-22T03:41:47.216Z,4.93
2019-05-22T03:44:17.255Z,5.40
2019-05-22T03:46:50.517Z,5.03
2019-05-22T03:49:30.961Z,5.37
2019-05-22T03:51:52.450Z,5.30
2019-05-22T03:54:21.755Z,5.47
2019-05-22T03:56:51.849Z,5.60
2019-05-22T03:59:20.835Z,5.07
2019-05-22T04:01:49.963Z,5.43
2019-05-22T04:04:37.065Z,5.90
2019-05-22T04:07:08.384Z,5.73
2019-05-22T04:09:40.363Z,5.10
2019-05-22T04:12:10.447Z,5.80
2019-05-22T04:14:40.874Z,6.20
2019-05-22T04:17:12.844Z,5.60
2019-05-22T04:19:50.288Z,5.80
2019-05-22T04:22:16.328Z,6.43
2019-05-22T04:24:47.559Z,6.57
2019-05-22T04:27:17.666Z,6.73
2019-05-22T04:29:47.654Z,6.27
2019-05-22T04:32:35.271Z,6.47
2019-05-22T04:35:08.896Z,6.53
2019-05-22T04:37:38.560Z,6.53
2019-05-22T04:40:46.777Z,8.13
2019-05-22T04:43:20.587Z,8.00
2019-05-22T04:45:48.996Z,8.70
2019-05-22T04:48:19.705Z,9.37
2019-05-22T04:50:52.020Z,8.43
2019-05-22T04:53:22.155Z,8.03
2019-05-22T04:55:52.506Z,7.70
2019-05-22T04:58:31.085Z,7.63
2019-05-22T05:01:00.904Z,7.17
2019-05-22T05:03:30.004Z,7.33
2019-05-22T05:06:00.086Z,7.63
2019-05-22T05:08:29.987Z,8.70
2019-05-22T05:11:02.776Z,7.87
2019-05-22T05:13:32.363Z,8.70
2019-05-22T05:16:02.537Z,7.07
2019-05-22T05:18:32.274Z,7.47
2019-05-22T05:21:02.087Z,6.70
2019-05-22T05:23:31.091Z,6.50
2019-05-22T05:26:31.841Z,7.37
2019-05-22T05:29:01.334Z,6.87
2019-05-22T05:31:31.033Z,5.90
2019-05-22T05:34:29.170Z,6.60
2019-05-22T05:37:00.541Z,6.40
2019-05-22T05:40:32.815Z,5.53
2019-05-22T05:43:09.234Z,6.03
2019-05-22T05:45:49.440Z,6.33
2019-05-22T05:48:26.140Z,5.90
2019-05-22T05:51:39.425Z,6.23
2019-05-22T05:54:15.297Z,5.63
2019-05-22T05:56:48.446Z,6.40
2019-05-22T05:59:23.134Z,6.67
2019-05-22T06:01:55.030Z,7.00
2019-05-22T06:04:41.107Z,6.83
2019-05-22T06:07:24.360Z,6.57
2019-05-22T06:10:21.574Z,7.67
2019-05-22T06:12:51.420Z,6.53
2019-05-22T06:15:22.355Z,7.40
2019-05-22T06:18:31.776Z,7.73
2019-05-22T06:21:04.204Z,7.83
2019-05-22T06:24:10.454Z,7.43
2019-05-22T06:27:30.305Z,7.53
2019-05-22T06:30:16.224Z,7.63
2019-05-22T06:33:52.498Z,7.23
2019-05-22T06:37:26.860Z,7.40
2019-05-22T07:06:34.225Z,7.12
2019-05-22T07:28:31.478Z,8.15
2019-05-22T07:31:30.181Z,8.35
2019-05-22T07:34:34.894Z,7.90
2019-05-22T07:37:18.513Z,7.87
2019-05-22T07:40:29.565Z,8.00
2019-05-22T07:43:25.473Z,8.05
2019-05-22T08:03:26.280Z,7.75
2019-05-22T08:05:57.955Z,8.58
2019-05-22T08:08:29.650Z,8.73
2019-05-22T08:11:19.547Z,9.05
2019-05-22T08:13:48.668Z,8.80
2019-05-22T08:16:18.249Z,8.00
2019-05-22T08:18:47.451Z,9.15
2019-05-22T08:21:16.629Z,9.18
2019-05-22T08:23:46.137Z,9.55
2019-05-22T08:26:16.597Z,8.88
2019-05-22T08:28:45.626Z,9.70
2019-05-22T08:31:15.858Z,8.98
2019-05-22T08:33:44.773Z,9.28
2019-05-22T08:36:14.618Z,9.23
2019-05-22T08:38:45.019Z,8.73
2019-05-22T08:41:16.159Z,9.23
2019-05-22T08:44:14.428Z,10.20
2019-05-22T08:46:17.765Z,10.00
2019-05-22T08:48:48.905Z,10.25
2019-05-22T08:51:18.662Z,10.43
2019-05-22T08:53:48.692Z,9.03
2019-05-22T08:56:19.559Z,10.40
2019-05-22T08:58:48.416Z,10.50
2019-05-22T09:01:17.331Z,10.68
2019-05-22T09:03:46.454Z,9.88
2019-05-22T09:06:15.346Z,10.23
2019-05-22T09:08:44.227Z,9.65
2019-05-22T09:11:12.982Z,10.72
2019-05-22T09:13:42.085Z,10.58
2019-05-22T09:16:12.092Z,11.35
2019-05-22T09:18:41.030Z,11.08
2019-05-22T09:21:09.966Z,10.70
2019-05-22T09:23:40.940Z,10.75
2019-05-22T09:26:10.818Z,14.25
2019-05-22T09:28:39.812Z,14.23
2019-05-22T09:31:08.618Z,15.13
2019-05-22T09:33:38.429Z,16.23
2019-05-22T09:36:08.615Z,16.55
2019-05-22T09:38:37.520Z,15.35
2019-05-22T09:41:06.657Z,13.70
2019-05-22T09:43:35.532Z,13.83
2019-05-22T09:46:05.876Z,14.68
2019-05-22T09:48:36.227Z,13.93
2019-05-22T09:51:05.112Z,11.50
2019-05-22T09:53:35.015Z,11.60
2019-05-22T09:56:04.614Z,11.78
2019-05-22T09:58:33.524Z,10.78
2019-05-22T10:01:03.275Z,10.60
2019-05-22T10:03:32.245Z,10.32
2019-05-22T10:06:01.564Z,9.88
2019-05-22T10:08:30.800Z,10.48
2019-05-22T10:11:00.175Z,10.13
2019-05-22T10:13:29.509Z,10.30
2019-05-22T10:15:58.511Z,10.30
2019-05-22T10:18:27.438Z,9.98
2019-05-22T10:20:57.403Z,10.20
2019-05-22T10:23:27.224Z,10.23
2019-05-22T10:25:56.127Z,10.20
2019-05-22T10:28:25.350Z,10.95
2019-05-22T10:30:55.957Z,11.25
2019-05-22T10:33:25.216Z,10.28
2019-05-22T10:35:54.073Z,10.85
2019-05-22T10:38:23.448Z,11.55
2019-05-22T10:40:52.413Z,10.98
2019-05-22T10:43:21.515Z,10.53
2019-05-22T10:45:50.541Z,10.82
2019-05-22T10:48:19.443Z,11.15
2019-05-22T10:50:48.463Z,12.05
2019-05-22T10:53:32.440Z,11.80
2019-05-22T10:55:48.369Z,12.25
2019-05-22T10:58:17.560Z,12.28
2019-05-22T11:00:46.754Z,11.55
2019-05-22T11:03:16.577Z,12.75
2019-05-22T11:05:45.962Z,13.15
2019-05-22T11:08:14.900Z,13.93
2019-05-22T11:10:45.299Z,12.45
2019-05-22T11:13:14.328Z,13.40
2019-05-22T11:15:43.595Z,12.35
2019-05-22T11:18:12.714Z,14.35
2019-05-22T11:20:42.658Z,12.93
2019-05-22T11:23:12.188Z,13.18
2019-05-22T11:25:41.245Z,12.95
2019-05-22T11:28:10.025Z,14.33
2019-05-22T11:30:40.332Z,15.58
2019-05-22T11:33:09.873Z,10.43
2019-05-22T11:35:39.949Z,12.53
2019-05-22T11:38:09.969Z,11.15
2019-05-22T11:40:40.575Z,11.08
2019-05-22T11:43:11.239Z,10.93
2019-05-22T11:45:40.089Z,7.92
2019-05-22T11:48:10.757Z,10.43
2019-05-22T11:50:40.447Z,9.63
2019-05-22T11:53:09.807Z,12.78
2019-05-22T11:55:45.135Z,10.68
2019-05-22T11:58:10.589Z,17.87
2019-05-22T12:00:39.519Z,19.02
2019-05-22T12:03:09.409Z,19.10
2019-05-22T12:05:38.784Z,19.62
2019-05-22T12:08:08.244Z,21.00
2019-05-22T12:10:37.986Z,18.73
2019-05-22T12:13:08.484Z,14.10
2019-05-22T12:15:38.450Z,13.08
2019-05-22T12:18:07.812Z,14.65
2019-05-22T12:20:36.827Z,15.10
2019-05-22T12:23:06.382Z,12.00
2019-05-22T12:25:35.504Z,15.10
2019-05-22T12:28:05.330Z,13.15
2019-05-22T12:30:35.326Z,15.58
2019-05-22T12:33:12.560Z,17.27
2019-05-22T12:35:37.363Z,16.82
2019-05-22T12:38:07.663Z,13.38
2019-05-22T12:40:39.413Z,14.63
2019-05-22T12:43:09.210Z,12.03
2019-05-22T12:45:38.139Z,16.67
2019-05-22T12:48:07.563Z,14.25
2019-05-22T12:50:36.536Z,14.75
2019-05-22T12:53:07.840Z,16.85
2019-05-22T12:55:37.195Z,14.43
2019-05-22T12:58:06.691Z,14.53
2019-05-22T13:00:36.302Z,13.60
2019-05-22T13:03:06.441Z,11.80
2019-05-22T13:05:36.890Z,11.40
2019-05-22T13:08:06.904Z,13.45
2019-05-22T13:10:36.577Z,14.10
2019-05-22T13:13:05.924Z,12.75
2019-05-22T13:15:37.626Z,11.25
2019-05-22T13:18:10.042Z,12.18
2019-05-22T13:20:43.994Z,11.88
2019-05-22T13:23:13.705Z,11.78
2019-05-22T13:25:43.289Z,10.45
2019-05-22T13:28:14.589Z,11.20
2019-05-22T13:30:48.324Z,10.20
2019-05-22T13:33:20.989Z,8.25
2019-05-22T13:35:51.250Z,8.15
2019-05-22T13:38:20.075Z,8.78
2019-05-22T13:40:49.647Z,6.83
2019-05-22T13:43:19.192Z,9.13
2019-05-22T13:45:48.055Z,7.70
2019-05-22T13:48:17.052Z,8.33
2019-05-22T13:50:46.168Z,6.05
2019-05-22T13:53:17.948Z,6.17
2019-05-22T13:55:46.972Z,7.20
2019-05-22T13:58:20.401Z,6.85
2019-05-22T14:00:50.146Z,5.25
2019-05-22T14:03:25.673Z,5.30
2019-05-22T14:05:57.382Z,4.22
2019-05-22T14:08:26.572Z,4.80
2019-05-22T14:10:57.953Z,2.55
2019-05-22T14:13:27.692Z,2.60
2019-05-22T14:15:57.524Z,4.08
2019-05-22T14:18:27.126Z,4.20
2019-05-22T14:20:56.107Z,2.65
2019-05-22T14:23:25.220Z,2.67
2019-05-22T14:25:54.618Z,2.58
2019-05-22T14:28:25.253Z,3.20
2019-05-22T14:30:54.443Z,2.22
2019-05-22T14:33:27.824Z,2.02
2019-05-22T14:35:57.377Z,2.50
2019-05-22T14:38:27.121Z,3.00
2019-05-22T14:40:57.216Z,2.10
2019-05-22T14:43:26.890Z,2.65
2019-05-22T14:45:56.005Z,3.00
2019-05-22T14:48:25.118Z,2.90
2019-05-22T14:50:54.102Z,2.60
2019-05-22T14:53:23.460Z,2.80
2019-05-22T14:55:53.022Z,3.40
2019-05-22T14:58:22.725Z,2.42
2019-05-22T15:00:52.838Z,2.40
2019-05-22T15:03:23.007Z,2.20
2019-05-22T15:05:52.793Z,2.50
2019-05-22T15:08:21.652Z,3.55
2019-05-22T15:10:50.493Z,2.95
2019-05-22T15:13:19.548Z,2.50
2019-05-22T15:15:48.417Z,2.70
2019-05-22T15:18:17.675Z,3.20
2019-05-22T15:21:04.406Z,2.62
2019-05-22T15:23:34.182Z,2.83
2019-05-22T15:26:03.824Z,2.60
2019-05-22T15:28:32.921Z,3.27
2019-05-22T15:31:02.814Z,2.90
2019-05-22T15:33:33.764Z,3.52
2019-05-22T15:36:06.572Z,4.03
2019-05-22T15:38:35.309Z,4.35
2019-05-22T15:41:05.363Z,3.72
2019-05-22T15:43:34.773Z,3.60
2019-05-22T15:46:07.035Z,3.58
2019-05-22T15:48:38.027Z,4.37
2019-05-22T15:51:08.177Z,5.30
2019-05-22T15:53:39.045Z,3.98
2019-05-22T15:56:09.625Z,4.40
2019-05-22T15:58:45.543Z,4.70
2019-05-22T16:01:17.033Z,4.90
2019-05-22T16:03:48.346Z,5.37
2019-05-22T16:06:18.389Z,5.60
2019-05-22T16:08:48.762Z,6.55
2019-05-22T16:12:12.619Z,4.50
2019-05-22T16:14:00.123Z,5.58
2019-05-22T16:16:30.073Z,5.70
2019-05-22T16:19:04.871Z,5.62
2019-05-22T16:21:34.912Z,6.10
2019-05-22T16:24:05.753Z,5.67
2019-05-22T16:26:35.985Z,6.00
2019-05-22T16:29:05.927Z,5.92
2019-05-22T16:31:37.171Z,5.87
2019-05-22T16:34:06.164Z,6.12
2019-05-22T16:36:35.101Z,6.87
2019-05-22T16:39:05.030Z,6.85
2019-05-22T16:41:34.969Z,7.05
2019-05-22T16:44:04.584Z,6.53
2019-05-22T16:46:34.946Z,6.30
2019-05-22T16:49:04.303Z,7.25
2019-05-22T16:51:33.537Z,5.80
2019-05-22T16:54:06.177Z,6.90
2019-05-22T16:56:37.393Z,6.75
2019-05-22T16:59:09.568Z,6.28
2019-05-22T17:01:57.042Z,5.58
2019-05-22T17:04:11.725Z,5.85
2019-05-22T17:06:43.136Z,6.80
2019-05-22T17:09:15.036Z,6.10
2019-05-22T17:11:44.629Z,5.67
2019-05-22T17:14:14.677Z,6.35
2019-05-22T17:16:43.792Z,6.10
2019-05-22T17:19:26.713Z,6.25
2019-05-22T17:21:45.891Z,6.80
2019-05-22T17:24:14.941Z,6.83
2019-05-22T17:26:44.915Z,3.80
2019-05-22T17:29:15.221Z,4.30
2019-05-22T17:31:44.226Z,5.50
2019-05-22T17:34:31.045Z,5.78
2019-05-22T17:37:01.943Z,5.80
2019-05-22T17:39:34.119Z,5.35
2019-05-22T17:42:05.002Z,3.95
2019-05-22T17:44:35.425Z,3.72
2019-05-22T17:47:06.782Z,3.08
2019-05-22T17:49:36.244Z,2.83
2019-05-22T17:52:05.815Z,3.33
2019-05-22T17:54:34.981Z,4.25
2019-05-22T17:57:05.372Z,3.50
2019-05-22T17:59:34.522Z,3.80
2019-05-22T18:02:05.614Z,4.33
2019-05-22T18:04:36.169Z,4.40
2019-05-22T18:07:05.617Z,4.17
2019-05-22T18:09:34.866Z,4.50
2019-05-22T18:12:05.913Z,4.35
2019-05-22T18:14:36.078Z,4.55
2019-05-22T18:17:05.694Z,4.80
2019-05-22T18:19:35.804Z,5.05
2019-05-22T18:22:06.414Z,4.87
2019-05-22T18:24:35.719Z,4.33
2019-05-22T18:27:04.901Z,4.17
2019-05-22T18:29:33.929Z,4.45
2019-05-22T18:32:04.812Z,3.92
2019-05-22T18:34:33.762Z,3.60
2019-05-22T18:37:02.595Z,4.00
2019-05-22T18:39:32.460Z,3.83
2019-05-22T18:42:01.445Z,3.75
2019-05-22T18:44:30.333Z,4.03
2019-05-22T18:46:59.848Z,3.77
2019-05-22T18:49:28.894Z,3.33
2019-05-22T18:51:58.024Z,3.00
2019-05-22T18:54:27.045Z,3.00
2019-05-22T18:56:55.970Z,2.87
2019-05-22T18:59:25.120Z,2.95
2019-05-22T19:01:54.999Z,3.37
2019-05-22T19:04:23.980Z,2.90
2019-05-22T19:07:00.145Z,3.00
2019-05-22T19:09:31.759Z,3.20
2019-05-22T19:12:01.551Z,3.47
2019-05-22T19:14:37.116Z,3.85
2019-05-22T19:17:10.528Z,3.15
2019-05-22T19:19:39.842Z,3.42
2019-05-22T19:22:09.568Z,3.50
2019-05-22T19:24:41.687Z,3.17
2019-05-22T19:27:14.270Z,2.90
2019-05-22T19:29:58.081Z,2.70
2019-05-22T19:32:34.657Z,2.72
2019-05-22T19:35:06.930Z,3.60
2019-05-22T19:37:36.218Z,3.47
2019-05-22T19:40:12.580Z,3.80
2019-05-22T19:42:51.628Z,3.67
2019-05-22T19:45:20.957Z,3.20
2019-05-22T19:47:53.017Z,4.15
2019-05-22T19:50:24.188Z,3.85
2019-05-22T19:52:55.117Z,3.72
2019-05-22T19:55:27.548Z,4.67
2019-05-22T19:57:57.619Z,4.90
2019-05-22T20:00:28.111Z,4.58
2019-05-22T20:02:58.361Z,4.75
2019-05-22T20:05:27.952Z,4.87
2019-05-22T20:07:57.089Z,4.95
2019-05-22T20:10:27.094Z,6.55
2019-05-22T20:12:56.588Z,6.03
2019-05-22T20:15:26.169Z,5.65
2019-05-22T20:17:56.191Z,5.08
2019-05-22T20:20:25.700Z,6.60
2019-05-22T20:22:55.076Z,6.28
2019-05-22T20:25:24.413Z,5.65
2019-05-22T20:27:54.292Z,6.55
2019-05-22T20:30:24.527Z,6.12
2019-05-22T20:32:53.391Z,6.28
2019-05-22T20:35:22.373Z,5.53
2019-05-22T20:37:51.689Z,6.42
2019-05-22T20:40:21.948Z,6.05
2019-05-22T20:42:51.025Z,6.35
2019-05-22T20:45:24.558Z,6.58
2019-05-22T20:48:07.705Z,5.87
2019-05-22T20:50:37.226Z,7.12
2019-05-22T20:53:13.036Z,6.92
2019-05-22T20:55:43.703Z,6.10
2019-05-22T20:58:13.532Z,6.30
2019-05-22T21:00:43.427Z,6.85
2019-05-22T21:03:13.309Z,7.05
2019-05-22T21:05:44.893Z,6.50
2019-05-22T21:08:15.830Z,7.33
2019-05-22T21:10:48.197Z,7.60
2019-05-22T21:13:19.875Z,7.10
2019-05-22T21:15:49.668Z,6.92
2019-05-22T21:18:20.439Z,7.28
2019-05-22T21:20:54.553Z,6.75
2019-05-22T21:23:21.817Z,7.92
2019-05-22T21:25:52.329Z,6.50
2019-05-22T21:28:21.369Z,6.65
2019-05-22T21:30:51.850Z,6.55
2019-05-22T21:33:21.641Z,7.17
2019-05-22T21:35:50.816Z,6.10
2019-05-22T21:38:20.611Z,6.65
2019-05-22T21:40:50.756Z,6.22
2019-05-22T21:43:20.253Z,7.00
2019-05-22T21:45:49.357Z,7.67
2019-05-22T21:48:20.285Z,6.90
2019-05-22T21:50:49.325Z,6.30
2019-05-22T21:53:19.800Z,6.80
2019-05-22T21:56:03.358Z,6.03
2019-05-22T21:58:19.427Z,6.85
2019-05-22T22:01:27.984Z,5.85
2019-05-22T22:04:03.835Z,5.85
2019-05-22T22:06:33.519Z,5.90
2019-05-22T22:09:03.642Z,5.50
2019-05-22T22:11:33.308Z,5.50
2019-05-22T22:14:03.310Z,5.42
2019-05-22T22:16:32.151Z,5.42
2019-05-22T22:19:01.097Z,5.50
2019-05-22T22:21:30.811Z,5.10
2019-05-22T22:23:59.784Z,5.70
2019-05-22T22:26:28.903Z,5.10
2019-05-22T22:28:58.094Z,5.60
2019-05-22T22:31:29.881Z,5.73
2019-05-22T22:34:07.107Z,5.17
2019-05-22T22:36:36.244Z,5.50
2019-05-22T22:39:10.159Z,5.20
2019-05-22T22:41:39.214Z,5.17
2019-05-22T22:44:10.110Z,5.20
2019-05-22T22:46:55.944Z,5.40
2019-05-22T22:49:27.767Z,5.47
2019-05-22T22:51:57.333Z,5.93
2019-05-22T22:54:26.519Z,5.90
2019-05-22T22:56:56.108Z,5.77
2019-05-22T22:59:26.910Z,6.13
2019-05-22T23:01:57.142Z,5.87
2019-05-22T23:04:28.317Z,5.60
2019-05-22T23:07:02.066Z,5.57
2019-05-22T23:09:31.543Z,6.10
2019-05-22T23:12:01.327Z,5.67
2019-05-22T23:14:32.705Z,5.67
2019-05-22T23:17:01.533Z,6.00
2019-05-22T23:19:31.962Z,6.03
2019-05-22T23:22:01.332Z,5.90
2019-05-22T23:24:30.889Z,6.30
2019-05-22T23:27:00.914Z,5.87
2019-05-22T23:29:30.695Z,6.40
2019-05-22T23:32:00.648Z,6.10
2019-05-22T23:34:30.690Z,6.37
2019-05-22T23:37:00.527Z,6.70
2019-05-22T23:39:33.480Z,6.53
2019-05-22T23:42:10.121Z,6.90
2019-05-22T23:44:41.223Z,6.43
2019-05-22T23:47:11.361Z,6.90
2019-05-22T23:49:42.605Z,6.50
2019-05-22T23:52:13.202Z,6.40
2019-05-22T23:54:42.053Z,7.10
2019-05-22T23:57:13.005Z,6.70
2019-05-22T23:59:44.596Z,6.40
